createdAt,value
2018-06-19T00:07:18.707Z,3.57
2018-06-19T00:09:51.298Z,4.17
2018-06-19T00:12:37.897Z,4.57
2018-06-19T00:16:01.552Z,11.87
2018-06-19T00:18:40.493Z,4.27
2018-06-19T00:21:19.709Z,3.70
2018-06-19T00:23:50.012Z,4.73
2018-06-19T00:26:18.922Z,8.10
2018-06-19T00:28:49.045Z,3.30
2018-06-19T00:31:21.001Z,4.60
2018-06-19T00:33:50.600Z,3.37
2018-06-19T00:39:22.955Z,6.97
2018-06-19T00:41:53.794Z,3.27
2018-06-19T00:44:29.841Z,6.13
2018-06-19T00:46:59.415Z,3.73
2018-06-19T00:49:33.983Z,6.37
2018-06-19T00:52:03.047Z,6.10
2018-06-19T00:58:23.126Z,3.90
2018-06-19T01:01:11.641Z,5.77
2018-06-19T01:03:42.738Z,5.37
2018-06-19T01:06:11.554Z,5.17
2018-06-19T01:08:40.878Z,3.33
2018-06-19T01:11:15.470Z,7.30
2018-06-19T01:14:12.697Z,5.43
2018-06-19T01:16:42.192Z,8.87
2018-06-19T01:22:20.417Z,5.20
2018-06-19T01:24:56.440Z,9.30
2018-06-19T01:33:22.490Z,9.03
2018-06-19T01:36:30.049Z,13.37
2018-06-19T01:41:44.142Z,4.87
2018-06-19T01:47:11.152Z,5.30
2018-06-19T01:49:41.469Z,6.67
2018-06-19T01:52:11.777Z,12.37
2018-06-19T01:57:25.582Z,4.90
2018-06-19T02:18:40.169Z,14.43
2018-06-19T02:24:46.114Z,10.00
2018-06-19T02:27:30.134Z,7.67
2018-06-19T02:33:01.286Z,5.20
2018-06-19T02:38:11.033Z,11.67
2018-06-19T02:58:39.270Z,15.47
2018-06-19T03:01:23.977Z,12.93
2018-06-19T03:04:16.885Z,11.50
2018-06-19T03:06:48.238Z,8.00
2018-06-19T03:12:08.435Z,9.20
2018-06-19T03:38:41.268Z,9.53
2018-06-19T03:44:22.259Z,15.30
2018-06-19T04:19:50.748Z,9.80
2018-06-19T04:22:26.662Z,16.00
2018-06-19T04:24:56.104Z,17.43
2018-06-19T04:27:35.851Z,23.10
2018-06-19T04:30:08.939Z,12.10
2018-06-19T04:35:43.646Z,14.73
2018-06-19T04:38:12.990Z,12.33
2018-06-19T04:40:43.958Z,15.50
2018-06-19T04:43:16.909Z,14.00
2018-06-19T04:45:46.275Z,10.10
2018-06-19T04:48:17.427Z,22.10
2018-06-19T04:50:46.376Z,19.17
2018-06-19T04:53:20.732Z,16.40
2018-06-19T04:55:51.041Z,10.53
2018-06-19T04:58:20.101Z,15.73
2018-06-19T05:00:54.186Z,18.13
2018-06-19T05:03:54.241Z,10.93
2018-06-19T05:06:23.372Z,9.90
2018-06-19T05:08:55.878Z,20.27
2018-06-19T05:11:25.244Z,17.20
2018-06-19T05:13:54.742Z,15.73
2018-06-19T05:16:23.960Z,17.10
2018-06-19T05:18:53.971Z,19.33
2018-06-19T05:29:07.378Z,18.20
2018-06-19T05:31:36.165Z,16.97
2018-06-19T06:08:52.028Z,14.83
2018-06-19T06:11:22.285Z,66.57
2018-06-19T06:16:45.297Z,23.67
2018-06-19T06:19:13.666Z,18.30
2018-06-19T06:24:16.404Z,28.17
2018-06-19T06:29:54.418Z,21.53
2018-06-19T06:32:24.151Z,19.63
2018-06-19T06:34:58.480Z,26.37
2018-06-19T06:40:14.353Z,19.80
2018-06-19T06:48:29.421Z,26.77
2018-06-19T06:50:58.880Z,21.13
2018-06-19T06:53:27.384Z,25.00
2018-06-19T06:55:56.229Z,27.83
2018-06-19T06:58:24.959Z,20.90
2018-06-19T07:00:53.433Z,22.00
2018-06-19T07:03:25.411Z,26.60
2018-06-19T07:05:53.904Z,19.50
2018-06-19T07:08:22.332Z,23.93
2018-06-19T07:10:50.882Z,27.13
2018-06-19T07:13:19.510Z,20.03
2018-06-19T07:15:48.315Z,22.73
2018-06-19T07:18:16.743Z,25.23
2018-06-19T07:20:45.263Z,26.67
2018-06-19T07:23:13.893Z,30.00
2018-06-19T07:25:42.450Z,28.50
2018-06-19T07:28:11.639Z,24.67
2018-06-19T07:30:40.182Z,23.73
2018-06-19T07:33:08.990Z,27.37
2018-06-19T07:35:37.755Z,25.33
2018-06-19T07:38:06.294Z,24.83
2018-06-19T07:40:34.821Z,26.70
2018-06-19T07:43:05.275Z,30.40
2018-06-19T07:45:34.362Z,29.97
2018-06-19T07:48:03.009Z,34.70
2018-06-19T07:50:32.021Z,26.53
2018-06-19T07:53:00.627Z,31.90
2018-06-19T07:55:29.190Z,28.80
2018-06-19T07:58:01.904Z,31.43
2018-06-19T08:00:30.495Z,28.07
2018-06-19T08:02:58.964Z,31.10
2018-06-19T08:05:27.451Z,30.53
2018-06-19T08:07:55.901Z,37.40
2018-06-19T08:10:26.437Z,36.57
2018-06-19T08:12:55.915Z,30.60
2018-06-19T08:15:25.472Z,33.47
2018-06-19T08:18:06.079Z,36.63
2018-06-19T08:20:34.478Z,37.33
2018-06-19T08:23:02.852Z,36.30
2018-06-19T08:25:32.272Z,38.13
2018-06-19T08:28:00.677Z,39.83
2018-06-19T08:30:29.061Z,40.70
2018-06-19T08:33:13.896Z,38.30
2018-06-19T08:35:42.276Z,40.47
2018-06-19T08:38:10.648Z,35.40
2018-06-19T08:40:39.110Z,37.30
2018-06-19T08:43:07.590Z,32.57
2018-06-19T08:45:37.798Z,38.70
2018-06-19T08:48:07.091Z,49.67
2018-06-19T08:50:36.812Z,54.13
2018-06-19T08:53:05.612Z,35.80
2018-06-19T09:01:07.527Z,34.53
2018-06-19T09:03:37.001Z,38.23
2018-06-19T09:06:21.672Z,39.33
2018-06-19T09:09:03.459Z,45.30
2018-06-19T09:14:49.626Z,42.60
2018-06-19T09:17:18.413Z,38.00
2018-06-19T09:19:46.966Z,36.67
2018-06-19T09:22:17.873Z,35.23
2018-06-19T09:24:46.720Z,36.90
2018-06-19T09:27:17.266Z,31.47
2018-06-19T09:29:46.390Z,36.10
2018-06-19T09:32:15.205Z,38.20
2018-06-19T09:34:43.740Z,36.77
2018-06-19T09:37:12.288Z,42.30
2018-06-19T09:39:40.813Z,42.23
2018-06-19T09:42:09.604Z,38.83
2018-06-19T09:44:38.212Z,36.07
2018-06-19T09:47:06.489Z,36.37
2018-06-19T09:49:35.310Z,40.33
2018-06-19T09:52:04.297Z,42.83
2018-06-19T09:54:33.392Z,38.50
2018-06-19T09:57:15.887Z,36.57
2018-06-19T09:59:56.182Z,43.47
2018-06-19T10:02:26.624Z,35.03
2018-06-19T10:07:56.372Z,40.03
2018-06-19T10:10:25.538Z,36.30
2018-06-19T10:13:02.896Z,46.93
2018-06-19T10:15:39.987Z,46.67
2018-06-19T10:18:08.645Z,39.57
2018-06-19T10:20:37.268Z,38.53
2018-06-19T10:23:06.971Z,44.67
2018-06-19T10:25:35.589Z,43.93
2018-06-19T10:28:09.293Z,40.33
2018-06-19T10:30:37.882Z,42.70
2018-06-19T10:33:07.722Z,37.33
2018-06-19T10:35:36.022Z,42.67
2018-06-19T10:38:14.288Z,40.30
2018-06-19T10:40:42.928Z,51.07
2018-06-19T10:43:11.636Z,42.67
2018-06-19T10:45:40.528Z,42.77
2018-06-19T10:48:09.078Z,38.30
2018-06-19T10:50:37.266Z,42.03
2018-06-19T10:53:05.679Z,40.33
2018-06-19T10:55:34.352Z,38.40
2018-06-19T10:58:05.372Z,39.70
2018-06-19T11:00:33.850Z,38.23
2018-06-19T11:03:02.383Z,41.10
2018-06-19T11:05:30.942Z,42.03
2018-06-19T11:07:59.444Z,35.70
2018-06-19T11:10:27.989Z,45.33
2018-06-19T11:12:56.488Z,31.50
2018-06-19T11:15:24.979Z,37.53
2018-06-19T11:17:53.466Z,31.97
2018-06-19T11:20:21.971Z,32.53
2018-06-19T11:22:50.486Z,32.83
2018-06-19T11:25:19.094Z,40.17
2018-06-19T11:27:47.636Z,33.57
2018-06-19T11:30:16.199Z,35.00
2018-06-19T11:32:44.622Z,36.30
2018-06-19T11:35:13.082Z,32.90
2018-06-19T11:37:41.568Z,32.50
2018-06-19T11:40:09.710Z,42.57
2018-06-19T11:42:38.206Z,30.50
2018-06-19T11:45:06.712Z,30.93
2018-06-19T11:47:34.902Z,29.23
2018-06-19T11:50:03.737Z,30.70
2018-06-19T11:52:32.239Z,36.07
2018-06-19T11:55:00.721Z,30.27
2018-06-19T11:57:29.284Z,28.77
2018-06-19T11:59:57.818Z,34.77
2018-06-19T12:02:26.368Z,31.47
2018-06-19T12:04:54.980Z,30.27
2018-06-19T12:07:23.200Z,31.50
2018-06-19T12:09:51.671Z,32.23
2018-06-19T12:12:20.215Z,29.03
2018-06-19T12:14:48.685Z,28.23
2018-06-19T12:17:18.197Z,28.50
2018-06-19T12:19:46.682Z,29.97
2018-06-19T12:22:15.110Z,24.73
2018-06-19T12:24:43.576Z,27.83
2018-06-19T12:27:12.028Z,24.03
2018-06-19T12:29:43.403Z,27.90
2018-06-19T12:32:11.501Z,23.93
2018-06-19T12:34:39.923Z,27.40
2018-06-19T12:37:08.331Z,28.10
2018-06-19T12:39:36.798Z,23.17
2018-06-19T12:42:05.310Z,21.93
2018-06-19T12:44:33.804Z,28.77
2018-06-19T12:47:08.630Z,35.43
2018-06-19T12:49:48.456Z,27.57
2018-06-19T12:52:27.939Z,22.90
2018-06-19T12:55:15.784Z,25.27
2018-06-19T12:57:44.233Z,22.93
2018-06-19T13:00:15.028Z,27.07
2018-06-19T13:02:54.145Z,28.17
2018-06-19T13:05:33.853Z,24.97
2018-06-19T13:08:02.517Z,22.70
2018-06-19T13:10:30.917Z,23.90
2018-06-19T13:13:35.326Z,26.13
2018-06-19T13:16:03.730Z,34.60
2018-06-19T13:18:44.146Z,34.70
2018-06-19T13:21:12.583Z,50.90
2018-06-19T13:23:41.282Z,25.17
2018-06-19T13:26:09.667Z,26.70
2018-06-19T13:29:50.053Z,35.87
2018-06-19T13:32:18.547Z,21.20
2018-06-19T13:34:47.156Z,20.13
2018-06-19T13:37:16.243Z,17.53
2018-06-19T13:39:52.175Z,33.70
2018-06-19T13:42:31.899Z,24.03
2018-06-19T13:45:02.440Z,18.93
2018-06-19T13:47:30.905Z,19.93
2018-06-19T13:49:59.378Z,20.10
2018-06-19T13:52:27.906Z,19.03
2018-06-19T13:57:02.738Z,21.33
2018-06-19T13:59:31.092Z,23.13
2018-06-19T14:01:59.589Z,18.57
2018-06-19T14:04:28.078Z,24.70
2018-06-19T14:06:56.531Z,20.97
2018-06-19T14:11:36.976Z,21.57
2018-06-19T14:14:05.621Z,20.73
2018-06-19T14:16:34.117Z,20.00
2018-06-19T14:19:20.858Z,20.80
2018-06-19T14:28:17.417Z,18.50
2018-06-19T14:30:45.960Z,13.57
2018-06-19T14:33:14.456Z,19.97
2018-06-19T14:35:42.889Z,20.10
2018-06-19T14:38:11.419Z,15.57
2018-06-19T14:40:39.835Z,25.00
2018-06-19T14:43:09.766Z,15.47
2018-06-19T14:45:38.303Z,15.30
2018-06-19T14:48:07.047Z,15.73
2018-06-19T14:50:35.842Z,17.27
2018-06-19T14:56:02.141Z,20.07
2018-06-19T15:01:25.991Z,17.27
2018-06-19T15:03:55.608Z,17.77
2018-06-19T15:06:24.177Z,22.27
2018-06-19T15:08:52.602Z,15.77
2018-06-19T15:11:21.129Z,22.03
2018-06-19T15:13:49.552Z,19.37
2018-06-19T15:16:18.127Z,17.00
2018-06-19T15:18:46.566Z,18.80
2018-06-19T15:21:15.049Z,12.83
2018-06-19T15:23:43.653Z,14.87
2018-06-19T15:26:12.079Z,16.23
2018-06-19T15:28:40.561Z,15.90
2018-06-19T15:31:09.031Z,15.13
2018-06-19T15:33:37.780Z,20.07
2018-06-19T15:36:06.220Z,21.23
2018-06-19T15:38:34.692Z,13.87
2018-06-19T15:41:03.102Z,27.50
2018-06-19T15:43:31.525Z,19.73
2018-06-19T15:45:59.967Z,16.13
2018-06-19T15:48:28.752Z,17.20
2018-06-19T15:50:57.165Z,23.17
2018-06-19T15:53:25.679Z,14.43
2018-06-19T15:55:54.790Z,14.37
2018-06-19T15:58:23.240Z,19.13
2018-06-19T16:00:52.024Z,15.60
2018-06-19T16:03:20.521Z,16.30
2018-06-19T16:05:48.999Z,16.30
2018-06-19T16:08:18.793Z,16.30
2018-06-19T16:10:48.139Z,19.60
2018-06-19T16:13:16.580Z,18.47
2018-06-19T16:15:45.046Z,17.63
2018-06-19T16:18:14.529Z,15.57
2018-06-19T16:20:43.036Z,18.77
2018-06-19T16:23:11.509Z,22.00
2018-06-19T16:25:39.995Z,25.20
2018-06-19T16:28:08.472Z,16.40
2018-06-19T16:30:36.920Z,17.50
2018-06-19T16:33:05.407Z,17.60
2018-06-19T16:35:33.879Z,20.87
2018-06-19T16:38:02.357Z,17.93
2018-06-19T16:40:30.882Z,21.33
2018-06-19T16:42:59.521Z,27.57
2018-06-19T16:45:28.089Z,19.70
2018-06-19T16:47:56.411Z,13.80
2018-06-19T16:50:24.845Z,11.73
2018-06-19T16:52:53.347Z,16.70
2018-06-19T16:55:21.813Z,13.10
2018-06-19T16:57:50.271Z,16.07
2018-06-19T17:00:18.798Z,19.53
2018-06-19T17:02:47.305Z,21.10
2018-06-19T17:05:15.794Z,19.50
2018-06-19T17:07:44.239Z,19.90
2018-06-19T17:10:13.813Z,22.53
2018-06-19T17:12:42.294Z,25.50
2018-06-19T17:15:11.066Z,21.33
2018-06-19T17:17:39.511Z,23.73
2018-06-19T17:20:08.235Z,19.80
2018-06-19T17:22:36.739Z,22.30
2018-06-19T17:25:05.264Z,22.30
2018-06-19T17:27:34.702Z,19.13
2018-06-19T17:30:03.264Z,19.10
2018-06-19T17:32:31.713Z,22.80
2018-06-19T17:35:00.183Z,19.53
2018-06-19T17:37:28.637Z,20.30
2018-06-19T17:39:57.109Z,22.93
2018-06-19T17:42:25.567Z,20.93
2018-06-19T17:44:54.042Z,19.60
2018-06-19T17:47:22.500Z,13.27
2018-06-19T17:49:50.980Z,16.17
2018-06-19T17:52:19.508Z,17.80
2018-06-19T17:54:47.938Z,14.00
2018-06-19T17:57:16.421Z,16.40
2018-06-19T17:59:44.877Z,20.70
2018-06-19T18:02:13.327Z,16.13
2018-06-19T18:04:41.766Z,16.23
2018-06-19T18:07:10.253Z,28.93
2018-06-19T18:09:38.686Z,20.13
2018-06-19T18:12:07.127Z,21.60
2018-06-19T18:14:35.592Z,18.57
2018-06-19T18:17:04.038Z,21.20
2018-06-19T18:19:32.303Z,30.57
2018-06-19T18:22:02.061Z,19.03
2018-06-19T18:24:30.453Z,16.30
2018-06-19T18:26:58.916Z,24.80
2018-06-19T18:29:27.347Z,24.50
2018-06-19T18:31:55.786Z,24.07
2018-06-19T18:34:24.157Z,21.17
2018-06-19T18:36:52.954Z,24.70
2018-06-19T18:39:21.449Z,19.60
2018-06-19T18:41:49.921Z,25.30
2018-06-19T18:44:18.422Z,27.63
2018-06-19T18:46:46.920Z,22.13
2018-06-19T18:49:15.328Z,21.97
2018-06-19T18:51:43.836Z,24.50
2018-06-19T18:54:12.279Z,29.40
2018-06-19T18:56:40.922Z,26.90
2018-06-19T18:59:12.092Z,22.43
2018-06-19T19:01:40.571Z,28.53
2018-06-19T19:04:09.115Z,22.43
2018-06-19T19:06:42.553Z,19.73
2018-06-19T19:09:12.156Z,21.13
2018-06-19T19:11:42.541Z,35.63
2018-06-19T19:14:12.661Z,26.13
2018-06-19T19:16:51.524Z,27.27
2018-06-19T19:22:11.525Z,20.13
2018-06-19T19:24:42.222Z,21.10
2018-06-19T19:27:20.567Z,21.10
2018-06-19T19:35:05.743Z,23.63
2018-06-19T19:37:43.954Z,21.27
2018-06-19T19:40:14.749Z,15.43
2018-06-19T19:42:45.547Z,17.70
2018-06-19T19:45:15.849Z,21.43
2018-06-19T19:47:52.067Z,27.63
2018-06-19T19:50:21.897Z,31.33
2018-06-19T19:52:51.840Z,24.20
2018-06-19T19:55:32.527Z,21.40
2018-06-19T19:58:08.479Z,21.93
2018-06-19T20:00:39.625Z,29.87
2018-06-19T20:03:09.537Z,22.40
2018-06-19T20:05:45.596Z,17.70
2018-06-19T20:08:22.537Z,20.93
2018-06-19T20:10:52.217Z,21.87
2018-06-19T20:13:20.893Z,20.63
2018-06-19T20:15:50.052Z,26.73
2018-06-19T20:18:18.830Z,20.33
2018-06-19T20:20:47.741Z,24.60
2018-06-19T20:23:16.547Z,23.10
2018-06-19T20:25:45.407Z,25.97
2018-06-19T20:28:14.186Z,20.80
2018-06-19T20:30:42.926Z,22.00
2018-06-19T20:33:12.463Z,26.13
2018-06-19T20:35:41.463Z,23.50
2018-06-19T20:38:11.204Z,24.80
2018-06-19T20:40:40.505Z,21.63
2018-06-19T20:43:09.439Z,28.90
2018-06-19T20:45:38.198Z,19.83
2018-06-19T20:48:07.057Z,24.77
2018-06-19T20:50:36.118Z,29.60
2018-06-19T20:53:04.895Z,28.53
2018-06-19T20:55:33.819Z,19.50
2018-06-19T20:58:02.173Z,22.53
2018-06-19T21:00:31.013Z,24.33
2018-06-19T21:03:00.035Z,24.27
2018-06-19T21:05:29.054Z,22.10
2018-06-19T21:07:57.873Z,21.43
2018-06-19T21:10:26.669Z,24.43
2018-06-19T21:12:55.431Z,27.63
2018-06-19T21:15:24.854Z,20.43
2018-06-19T21:17:53.287Z,25.70
2018-06-19T21:20:22.144Z,19.57
2018-06-19T21:22:50.904Z,23.73
2018-06-19T21:25:19.202Z,22.27
2018-06-19T21:27:48.004Z,21.10
2018-06-19T21:30:16.961Z,22.30
2018-06-19T21:32:45.648Z,19.50
2018-06-19T21:35:14.399Z,27.90
2018-06-19T21:37:43.097Z,24.43
2018-06-19T21:40:11.816Z,24.00
2018-06-19T21:42:40.515Z,22.23
2018-06-19T21:45:09.294Z,28.33
2018-06-19T21:47:38.075Z,20.87
2018-06-19T21:50:06.513Z,25.93
2018-06-19T21:52:35.310Z,25.90
2018-06-19T21:55:04.149Z,21.80
2018-06-19T21:57:32.708Z,21.73
2018-06-19T22:00:02.333Z,28.97
2018-06-19T22:02:33.626Z,25.67
2018-06-19T22:05:04.186Z,31.13
2018-06-19T22:07:33.506Z,22.77
2018-06-19T22:10:02.305Z,26.77
2018-06-19T22:12:31.102Z,20.53
2018-06-19T22:14:59.580Z,20.70
2018-06-19T22:17:28.322Z,28.93
2018-06-19T22:19:57.198Z,26.63
2018-06-19T22:22:25.880Z,23.97
2018-06-19T22:24:55.276Z,23.60
2018-06-19T22:27:25.708Z,32.60
2018-06-19T22:30:01.744Z,26.23
2018-06-19T22:32:30.635Z,24.40
2018-06-19T22:34:59.353Z,29.17
2018-06-19T22:37:28.272Z,21.30
2018-06-19T22:39:57.029Z,29.83
2018-06-19T22:42:25.791Z,32.03
2018-06-19T22:44:54.747Z,31.10
2018-06-19T22:47:23.526Z,24.03
2018-06-19T22:49:52.346Z,21.73
2018-06-19T22:52:21.384Z,25.50
2018-06-19T22:54:53.204Z,30.17
2018-06-19T22:57:23.242Z,33.53
2018-06-19T22:59:52.262Z,28.00
2018-06-19T23:02:21.046Z,23.60
2018-06-19T23:04:49.841Z,27.20
2018-06-19T23:07:18.597Z,25.23
2018-06-19T23:09:47.438Z,33.33
2018-06-19T23:12:16.235Z,26.10
2018-06-19T23:14:45.236Z,28.40
2018-06-19T23:17:14.173Z,36.37
2018-06-19T23:19:42.992Z,26.37
2018-06-19T23:22:11.830Z,27.93
2018-06-19T23:24:40.513Z,25.90
2018-06-19T23:27:16.767Z,23.57
2018-06-19T23:29:45.607Z,29.67
2018-06-19T23:32:14.449Z,32.47
2018-06-19T23:34:43.346Z,43.80
2018-06-19T23:37:12.224Z,39.67
2018-06-19T23:39:40.663Z,41.50
2018-06-19T23:42:09.344Z,33.27
2018-06-19T23:44:38.180Z,46.03
2018-06-19T23:47:06.978Z,33.70
2018-06-19T23:49:35.537Z,37.13
2018-06-19T23:52:05.877Z,40.80
2018-06-19T23:54:34.415Z,42.97
2018-06-19T23:57:03.297Z,29.70
2018-06-19T23:59:32.056Z,35.60
